createdAt,value
2023-05-13T00:02:29.668Z,16.96
2023-05-13T00:04:56.613Z,16.87
2023-05-13T00:07:23.725Z,17.00
2023-05-13T00:09:50.864Z,17.02
2023-05-13T00:12:20.470Z,16.91
2023-05-13T00:14:47.283Z,16.98
2023-05-13T00:17:14.468Z,16.73
2023-05-13T00:19:41.508Z,16.73
2023-05-13T00:22:08.330Z,16.74
2023-05-13T00:24:35.282Z,16.65
2023-05-13T00:27:05.183Z,16.61
2023-05-13T00:29:34.462Z,16.71
2023-05-13T00:32:03.664Z,16.54
2023-05-13T00:34:32.730Z,16.56
2023-05-13T00:37:00.992Z,16.61
2023-05-13T00:39:30.506Z,16.65
2023-05-13T00:41:57.454Z,16.54
2023-05-13T00:44:24.341Z,16.48
2023-05-13T00:46:51.248Z,16.43
2023-05-13T00:49:20.279Z,16.32
2023-05-13T00:51:52.461Z,16.22
2023-05-13T00:54:19.284Z,16.31
2023-05-13T00:56:46.197Z,16.45
2023-05-13T00:59:15.305Z,16.33
2023-05-13T01:02:04.191Z,16.19
2023-05-13T01:05:00.108Z,16.14
2023-05-13T01:07:51.215Z,16.20
2023-05-13T01:10:45.260Z,16.19
2023-05-13T01:13:20.472Z,16.15
2023-05-13T01:16:21.584Z,16.09
2023-05-13T01:19:07.217Z,16.05
2023-05-13T01:21:41.380Z,15.96
2023-05-13T01:24:08.446Z,15.93
2023-05-13T01:26:35.377Z,15.97
2023-05-13T01:29:08.954Z,15.91
2023-05-13T01:31:39.297Z,15.89
2023-05-13T01:34:06.730Z,15.94
2023-05-13T01:36:33.667Z,15.90
2023-05-13T01:39:03.527Z,15.96
2023-05-13T01:41:30.390Z,15.99
2023-05-13T01:43:57.653Z,15.81
2023-05-13T01:46:24.571Z,15.87
2023-05-13T01:48:51.513Z,15.79
2023-05-13T01:51:20.680Z,15.76
2023-05-13T01:53:47.520Z,15.87
2023-05-13T01:56:19.433Z,15.70
2023-05-13T01:58:46.259Z,15.68
2023-05-13T02:01:15.398Z,15.58
2023-05-13T02:03:45.103Z,15.56
2023-05-13T02:06:14.365Z,15.63
2023-05-13T02:08:41.242Z,15.64
2023-05-13T02:11:08.145Z,15.67
2023-05-13T02:13:37.365Z,15.49
2023-05-13T02:16:04.566Z,15.44
2023-05-13T02:18:31.660Z,15.44
2023-05-13T02:21:01.042Z,15.47
2023-05-13T02:23:27.902Z,15.45
2023-05-13T02:25:56.958Z,15.33
2023-05-13T02:28:23.844Z,15.18
2023-05-13T02:30:52.932Z,15.28
2023-05-13T02:33:19.790Z,15.14
2023-05-13T02:35:46.661Z,15.15
2023-05-13T02:38:13.578Z,15.05
2023-05-13T02:40:44.955Z,15.04
2023-05-13T02:43:11.828Z,15.07
2023-05-13T02:45:41.345Z,15.05
2023-05-13T02:48:08.467Z,15.05
2023-05-13T02:50:35.472Z,15.05
2023-05-13T02:53:02.372Z,14.99
2023-05-13T02:55:29.239Z,14.83
2023-05-13T02:57:59.196Z,14.97
2023-05-13T03:00:26.219Z,14.93
2023-05-13T03:02:53.128Z,14.88
2023-05-13T03:05:22.722Z,14.83
2023-05-13T03:07:51.949Z,14.76
2023-05-13T03:10:19.105Z,14.50
2023-05-13T03:12:46.849Z,14.53
2023-05-13T03:15:16.098Z,14.38
2023-05-13T03:17:44.322Z,14.42
2023-05-13T03:20:11.941Z,14.32
2023-05-13T03:22:38.866Z,14.41
2023-05-13T03:25:08.981Z,14.44
2023-05-13T03:27:35.872Z,14.51
2023-05-13T03:30:02.786Z,14.59
2023-05-13T03:32:32.038Z,14.60
2023-05-13T03:35:00.824Z,14.61
2023-05-13T03:37:27.773Z,14.49
2023-05-13T03:39:54.740Z,14.52
2023-05-13T03:42:23.278Z,14.48
2023-05-13T03:44:51.265Z,14.35
2023-05-13T03:47:18.273Z,14.35
2023-05-13T03:49:45.914Z,14.37
2023-05-13T03:52:16.638Z,14.41
2023-05-13T03:54:46.056Z,14.46
2023-05-13T03:57:12.987Z,14.57
2023-05-13T03:59:39.854Z,14.46
2023-05-13T04:02:09.790Z,14.61
2023-05-13T04:04:36.663Z,14.65
2023-05-13T04:07:03.638Z,14.71
2023-05-13T04:09:30.570Z,14.67
2023-05-13T04:12:02.102Z,14.71
2023-05-13T04:14:31.184Z,14.81
2023-05-13T04:16:58.132Z,14.85
2023-05-13T04:19:27.117Z,14.92
2023-05-13T04:21:53.993Z,14.76
2023-05-13T04:24:20.901Z,15.06
2023-05-13T04:26:47.873Z,15.03
2023-05-13T04:29:17.204Z,15.07
2023-05-13T04:31:45.119Z,15.15
2023-05-13T04:34:12.037Z,15.23
2023-05-13T04:36:38.893Z,15.12
2023-05-13T04:39:08.277Z,15.20
2023-05-13T04:41:35.283Z,15.32
2023-05-13T04:44:02.659Z,15.42
2023-05-13T04:46:32.118Z,15.36
2023-05-13T04:48:59.003Z,15.55
2023-05-13T04:51:26.403Z,15.69
2023-05-13T04:53:53.804Z,15.63
2023-05-13T04:56:23.315Z,15.71
2023-05-13T04:58:50.552Z,15.95
2023-05-13T05:01:19.545Z,16.14
2023-05-13T05:03:46.544Z,15.99
2023-05-13T05:06:13.432Z,15.96
2023-05-13T05:08:40.372Z,16.17
2023-05-13T05:11:07.252Z,16.37
2023-05-13T05:13:34.111Z,16.38
2023-05-13T05:16:01.014Z,16.56
2023-05-13T05:18:28.071Z,16.46
2023-05-13T05:20:55.045Z,16.56
2023-05-13T05:23:23.995Z,16.36
2023-05-13T05:26:04.083Z,16.53
2023-05-13T05:28:35.312Z,16.51
2023-05-13T05:31:02.873Z,16.35
2023-05-13T05:33:29.838Z,16.65
2023-05-13T05:35:56.708Z,16.68
2023-05-13T05:38:25.675Z,16.61
2023-05-13T05:40:55.077Z,16.64
2023-05-13T05:43:24.557Z,16.47
2023-05-13T05:45:51.411Z,16.47
2023-05-13T05:48:21.346Z,16.57
2023-05-13T05:50:49.062Z,16.50
2023-05-13T05:53:16.047Z,16.62
2023-05-13T05:55:42.859Z,16.81
2023-05-13T05:58:18.068Z,16.89
2023-05-13T06:00:44.928Z,16.73
2023-05-13T06:03:15.145Z,16.86
2023-05-13T06:05:42.709Z,16.94
2023-05-13T06:08:09.600Z,17.23
2023-05-13T06:10:38.726Z,17.39
2023-05-13T06:13:05.692Z,17.30
2023-05-13T06:15:35.554Z,17.55
2023-05-13T06:18:05.729Z,17.59
2023-05-13T06:20:35.094Z,17.42
2023-05-13T06:23:02.024Z,17.50
2023-05-13T06:25:28.868Z,17.72
2023-05-13T06:27:59.015Z,17.98
2023-05-13T06:30:27.282Z,18.26
2023-05-13T06:33:02.112Z,18.21
2023-05-13T06:35:29.593Z,18.33
2023-05-13T06:37:56.480Z,18.55
2023-05-13T06:40:23.567Z,18.49
2023-05-13T06:42:50.760Z,18.53
2023-05-13T06:45:18.404Z,18.62
2023-05-13T06:47:45.389Z,18.81
2023-05-13T06:50:12.305Z,19.07
2023-05-13T06:52:41.847Z,19.38
2023-05-13T06:55:13.989Z,19.49
2023-05-13T06:57:43.517Z,19.55
2023-05-13T07:00:19.480Z,19.58
2023-05-13T07:02:46.591Z,19.35
2023-05-13T07:05:20.755Z,19.58
2023-05-13T07:07:48.117Z,19.71
2023-05-13T07:10:14.957Z,20.02
2023-05-13T07:12:41.834Z,20.12
2023-05-13T07:15:09.160Z,20.47
2023-05-13T07:17:36.175Z,20.42
2023-05-13T07:20:05.833Z,20.63
2023-05-13T07:22:32.771Z,20.71
2023-05-13T07:24:59.684Z,20.70
2023-05-13T07:27:28.677Z,20.51
2023-05-13T07:29:55.675Z,20.75
2023-05-13T07:32:25.588Z,20.81
2023-05-13T07:34:52.437Z,20.50
2023-05-13T07:37:19.376Z,20.75
2023-05-13T07:39:46.246Z,20.90
2023-05-13T07:42:13.370Z,20.82
2023-05-13T07:44:40.439Z,20.77
2023-05-13T07:47:09.501Z,20.96
2023-05-13T07:49:38.675Z,20.98
2023-05-13T07:52:05.964Z,21.45
2023-05-13T07:54:37.441Z,21.82
2023-05-13T07:57:04.348Z,21.54
2023-05-13T07:59:31.214Z,21.99
2023-05-13T08:01:58.134Z,21.87
2023-05-13T08:04:25.247Z,21.88
2023-05-13T08:06:52.783Z,22.22
2023-05-13T08:09:22.021Z,22.29
2023-05-13T08:11:48.969Z,22.12
2023-05-13T08:14:15.949Z,22.11
2023-05-13T08:16:42.858Z,22.36
2023-05-13T08:19:10.157Z,22.50
2023-05-13T08:21:37.064Z,22.70
2023-05-13T08:24:12.230Z,22.77
2023-05-13T08:26:39.113Z,23.13
2023-05-13T08:29:12.764Z,23.56
2023-05-13T08:31:39.837Z,23.67
2023-05-13T08:34:06.858Z,23.48
2023-05-13T08:36:33.979Z,23.59
2023-05-13T08:39:01.485Z,23.54
2023-05-13T08:41:31.769Z,23.39
2023-05-13T08:44:06.089Z,23.39
2023-05-13T08:46:39.089Z,23.64
2023-05-13T08:49:07.147Z,23.71
2023-05-13T08:51:34.215Z,24.02
2023-05-13T08:54:04.221Z,24.34
2023-05-13T08:56:33.259Z,24.46
2023-05-13T08:59:03.234Z,24.13
2023-05-13T09:01:33.659Z,24.28
2023-05-13T09:04:06.545Z,23.62
2023-05-13T09:06:33.778Z,23.95
2023-05-13T09:09:03.221Z,24.35
2023-05-13T09:11:33.975Z,24.42
2023-05-13T09:14:08.392Z,24.67
2023-05-13T09:16:36.702Z,24.16
2023-05-13T09:19:06.329Z,24.56
2023-05-13T09:21:36.327Z,24.13
2023-05-13T09:24:22.555Z,24.21
2023-05-13T09:26:51.694Z,24.29
2023-05-13T09:29:22.656Z,24.49
2023-05-13T09:31:57.942Z,25.04
2023-05-13T09:34:35.315Z,25.00
2023-05-13T09:37:09.451Z,24.87
2023-05-13T09:39:42.161Z,25.49
2023-05-13T09:42:19.675Z,25.73
2023-05-13T09:44:47.874Z,25.48
2023-05-13T09:47:16.021Z,25.51
2023-05-13T09:49:57.276Z,25.00
2023-05-13T09:52:24.229Z,25.07
2023-05-13T09:54:51.213Z,25.36
2023-05-13T09:57:21.159Z,24.87
2023-05-13T09:59:48.148Z,25.04
2023-05-13T10:02:18.644Z,25.63
2023-05-13T10:04:45.922Z,25.61
2023-05-13T10:07:13.328Z,25.14
2023-05-13T10:09:43.761Z,24.82
2023-05-13T10:12:14.303Z,24.91
2023-05-13T10:14:45.134Z,25.59
2023-05-13T10:17:12.502Z,25.63
2023-05-13T10:19:39.755Z,25.05
2023-05-13T10:22:09.792Z,25.41
2023-05-13T10:24:41.160Z,25.59
2023-05-13T10:27:08.722Z,26.31
2023-05-13T10:29:39.047Z,26.59
2023-05-13T10:32:10.213Z,26.69
2023-05-13T10:34:38.607Z,27.06
2023-05-13T10:37:43.474Z,26.18
2023-05-13T10:40:25.097Z,26.26
2023-05-13T10:43:21.033Z,26.95
2023-05-13T10:45:56.485Z,27.05
2023-05-13T10:48:23.549Z,25.91
2023-05-13T10:51:01.837Z,25.69
2023-05-13T10:53:32.439Z,26.48
2023-05-13T10:56:00.169Z,26.92
2023-05-13T10:58:32.677Z,26.08
2023-05-13T11:01:29.592Z,26.07
2023-05-13T11:04:02.847Z,25.95
2023-05-13T11:06:37.671Z,25.94
2023-05-13T11:09:09.213Z,26.48
2023-05-13T11:11:38.610Z,27.03
2023-05-13T11:14:18.158Z,27.08
2023-05-13T11:17:01.222Z,27.63
2023-05-13T11:19:30.103Z,27.59
2023-05-13T11:22:16.178Z,27.78
2023-05-13T11:24:46.733Z,26.88
2023-05-13T11:27:14.264Z,26.63
2023-05-13T11:29:49.771Z,27.08
2023-05-13T11:32:56.592Z,27.53
2023-05-13T11:35:34.790Z,27.34
2023-05-13T11:38:03.701Z,27.59
2023-05-13T11:40:36.361Z,27.77
2023-05-13T11:43:07.493Z,27.34
2023-05-13T11:45:40.008Z,27.24
2023-05-13T11:48:26.306Z,28.00
2023-05-13T11:50:56.961Z,28.89
2023-05-13T11:53:27.051Z,29.22
2023-05-13T11:55:56.153Z,28.45
2023-05-13T11:58:22.992Z,28.72
2023-05-13T12:00:49.877Z,29.37
2023-05-13T12:03:19.349Z,29.32
2023-05-13T12:05:46.609Z,28.43
2023-05-13T12:08:16.811Z,28.86
2023-05-13T12:10:46.433Z,28.41
2023-05-13T12:13:13.535Z,28.28
2023-05-13T12:15:41.373Z,28.19
2023-05-13T12:18:08.404Z,28.25
2023-05-13T12:20:38.220Z,28.54
2023-05-13T12:23:11.548Z,29.22
2023-05-13T12:25:43.464Z,29.52
2023-05-13T12:28:25.801Z,29.52
2023-05-13T12:31:01.719Z,29.48
2023-05-13T12:33:34.836Z,28.99
2023-05-13T12:36:21.603Z,29.24
2023-05-13T12:39:05.649Z,29.24
2023-05-13T12:41:35.458Z,28.81
2023-05-13T12:44:13.551Z,28.79
2023-05-13T12:46:53.960Z,28.77
2023-05-13T12:49:23.519Z,28.55
2023-05-13T12:51:51.732Z,28.50
2023-05-13T12:54:18.991Z,28.35
2023-05-13T12:56:45.865Z,28.09
2023-05-13T12:59:15.734Z,27.64
2023-05-13T13:01:42.985Z,27.64
2023-05-13T13:04:10.214Z,27.79
2023-05-13T13:06:37.280Z,27.90
2023-05-13T13:09:07.363Z,27.97
2023-05-13T13:11:34.222Z,28.21
2023-05-13T13:14:01.111Z,28.82
2023-05-13T13:16:28.005Z,28.46
2023-05-13T13:18:58.940Z,28.31
2023-05-13T13:21:26.718Z,28.20
2023-05-13T13:23:55.825Z,27.98
2023-05-13T13:26:25.056Z,27.97
2023-05-13T13:28:54.325Z,27.75
2023-05-13T13:31:21.849Z,28.19
2023-05-13T13:33:48.697Z,28.49
2023-05-13T13:36:16.804Z,28.10
2023-05-13T13:38:46.709Z,28.14
2023-05-13T13:41:13.532Z,28.08
2023-05-13T13:43:42.882Z,27.74
2023-05-13T13:46:09.805Z,27.49
2023-05-13T13:48:36.702Z,26.95
2023-05-13T13:51:03.671Z,27.24
2023-05-13T13:53:33.066Z,27.34
2023-05-13T13:55:59.954Z,26.71
2023-05-13T13:58:29.329Z,27.05
2023-05-13T14:00:56.662Z,27.11
2023-05-13T14:03:23.678Z,26.83
2023-05-13T14:05:52.049Z,26.94
2023-05-13T14:08:19.096Z,26.33
2023-05-13T14:10:48.293Z,26.28
2023-05-13T14:13:15.461Z,26.07
2023-05-13T14:15:42.380Z,25.75
2023-05-13T14:18:11.763Z,25.91
2023-05-13T14:20:39.280Z,26.23
2023-05-13T14:23:06.354Z,26.91
2023-05-13T14:25:33.332Z,27.31
2023-05-13T14:28:00.468Z,28.03
2023-05-13T14:30:27.902Z,28.01
2023-05-13T14:32:54.977Z,27.72
2023-05-13T14:35:21.925Z,27.67
2023-05-13T14:37:49.016Z,27.39
2023-05-13T14:40:16.225Z,27.25
2023-05-13T14:42:43.137Z,27.35
2023-05-13T14:45:13.583Z,26.93
2023-05-13T14:47:43.064Z,26.67
2023-05-13T14:50:12.557Z,26.31
2023-05-13T14:52:39.545Z,26.53
2023-05-13T14:55:07.007Z,26.67
2023-05-13T14:57:34.017Z,26.68
2023-05-13T15:00:01.173Z,26.46
2023-05-13T15:02:29.029Z,26.69
2023-05-13T15:04:59.614Z,26.89
2023-05-13T15:07:27.124Z,26.84
2023-05-13T15:09:54.756Z,26.70
2023-05-13T15:12:23.943Z,26.46
2023-05-13T15:14:55.260Z,26.17
2023-05-13T15:17:24.435Z,26.50
2023-05-13T15:19:53.611Z,25.89
2023-05-13T15:22:20.567Z,26.13
2023-05-13T15:24:50.611Z,26.23
2023-05-13T15:27:19.600Z,25.72
2023-05-13T15:29:46.465Z,25.55
2023-05-13T15:32:17.823Z,25.33
2023-05-13T15:34:44.662Z,25.29
2023-05-13T15:37:16.342Z,25.36
2023-05-13T15:39:44.186Z,25.22
2023-05-13T15:42:11.105Z,25.70
2023-05-13T15:44:40.246Z,25.95
2023-05-13T15:47:08.470Z,26.16
2023-05-13T15:49:35.670Z,26.14
2023-05-13T15:52:07.123Z,25.95
2023-05-13T15:54:34.650Z,26.21
2023-05-13T15:57:01.513Z,25.33
2023-05-13T15:59:30.662Z,25.40
2023-05-13T16:01:59.926Z,25.10
2023-05-13T16:04:27.089Z,25.38
2023-05-13T16:06:54.055Z,25.73
2023-05-13T16:09:20.909Z,26.01
2023-05-13T16:11:50.182Z,25.80
2023-05-13T16:14:19.764Z,25.93
2023-05-13T16:16:46.923Z,25.88
2023-05-13T16:19:14.188Z,26.27
2023-05-13T16:21:44.149Z,26.28
2023-05-13T16:24:11.229Z,26.16
2023-05-13T16:26:40.422Z,25.80
2023-05-13T16:29:07.323Z,25.22
2023-05-13T16:31:34.361Z,24.55
2023-05-13T16:34:01.185Z,24.29
2023-05-13T16:36:32.750Z,24.62
2023-05-13T16:39:01.816Z,25.02
2023-05-13T16:41:31.414Z,25.10
2023-05-13T16:44:05.522Z,25.10
2023-05-13T16:46:35.421Z,24.72
2023-05-13T16:49:02.434Z,24.68
2023-05-13T16:51:29.417Z,24.80
2023-05-13T16:53:58.775Z,24.78
2023-05-13T16:56:28.145Z,24.73
2023-05-13T16:58:57.345Z,25.02
2023-05-13T17:01:24.290Z,25.40
2023-05-13T17:03:51.157Z,25.21
2023-05-13T17:06:18.044Z,25.46
2023-05-13T17:08:44.853Z,24.94
2023-05-13T17:11:16.784Z,25.03
2023-05-13T17:13:46.360Z,24.90
2023-05-13T17:16:13.319Z,24.56
2023-05-13T17:18:42.405Z,24.84
2023-05-13T17:21:09.395Z,24.82
2023-05-13T17:23:36.215Z,24.64
2023-05-13T17:26:03.671Z,24.59
2023-05-13T17:28:30.623Z,24.24
2023-05-13T17:30:59.665Z,24.51
2023-05-13T17:33:28.651Z,24.45
2023-05-13T17:35:55.651Z,24.64
2023-05-13T17:38:25.042Z,24.73
2023-05-13T17:40:55.123Z,24.53
2023-05-13T17:43:22.075Z,24.73
2023-05-13T17:45:51.171Z,24.71
2023-05-13T17:48:21.079Z,24.58
2023-05-13T17:50:48.124Z,24.70
2023-05-13T17:53:17.957Z,24.71
2023-05-13T17:55:48.527Z,24.80
2023-05-13T17:58:16.374Z,24.83
2023-05-13T18:00:43.735Z,24.72
2023-05-13T18:03:10.955Z,24.75
2023-05-13T18:05:37.983Z,24.79
2023-05-13T18:08:05.144Z,24.83
2023-05-13T18:10:36.777Z,24.72
2023-05-13T18:13:06.758Z,24.79
2023-05-13T18:15:34.804Z,24.77
2023-05-13T18:18:04.035Z,24.63
2023-05-13T18:20:32.477Z,24.64
2023-05-13T18:23:01.801Z,24.45
2023-05-13T18:25:31.418Z,24.42
2023-05-13T18:28:00.921Z,24.51
2023-05-13T18:30:32.784Z,24.51
2023-05-13T18:32:59.762Z,24.37
2023-05-13T18:35:29.292Z,24.31
2023-05-13T18:37:58.176Z,24.15
2023-05-13T18:40:27.703Z,24.05
2023-05-13T18:42:59.078Z,24.02
2023-05-13T18:45:26.016Z,23.90
2023-05-13T18:47:52.856Z,23.85
2023-05-13T18:50:19.813Z,23.80
2023-05-13T18:52:49.722Z,23.53
2023-05-13T18:55:19.073Z,23.51
2023-05-13T18:57:46.433Z,23.41
2023-05-13T19:00:13.916Z,23.43
2023-05-13T19:02:43.665Z,23.40
2023-05-13T19:05:10.919Z,23.22
2023-05-13T19:07:40.392Z,23.06
2023-05-13T19:10:07.665Z,23.00
2023-05-13T19:12:34.497Z,22.92
2023-05-13T19:15:01.400Z,22.77
2023-05-13T19:17:30.968Z,22.73
2023-05-13T19:20:01.178Z,22.76
2023-05-13T19:22:28.073Z,22.67
2023-05-13T19:24:57.134Z,22.58
2023-05-13T19:27:27.137Z,22.40
2023-05-13T19:29:53.977Z,22.40
2023-05-13T19:32:23.314Z,22.27
2023-05-13T19:34:50.451Z,22.32
2023-05-13T19:37:17.309Z,22.21
2023-05-13T19:39:45.223Z,22.24
2023-05-13T19:42:12.100Z,21.96
2023-05-13T19:44:39.042Z,22.05
2023-05-13T19:47:06.418Z,21.95
2023-05-13T19:49:33.360Z,21.94
2023-05-13T19:52:00.244Z,21.82
2023-05-13T19:54:27.090Z,21.78
2023-05-13T19:56:53.981Z,21.71
2023-05-13T19:59:20.869Z,21.64
2023-05-13T20:01:50.847Z,21.53
2023-05-13T20:04:19.925Z,21.39
2023-05-13T20:06:46.795Z,21.44
2023-05-13T20:09:14.389Z,21.25
2023-05-13T20:11:41.254Z,21.29
2023-05-13T20:14:12.386Z,21.16
2023-05-13T20:16:39.430Z,21.02
2023-05-13T20:19:06.475Z,20.89
2023-05-13T20:21:33.389Z,20.66
2023-05-13T20:24:00.366Z,20.80
2023-05-13T20:26:29.549Z,20.71
2023-05-13T20:28:58.596Z,20.62
2023-05-13T20:31:25.640Z,20.67
2023-05-13T20:33:55.239Z,20.56
2023-05-13T20:36:22.113Z,20.51
2023-05-13T20:38:49.161Z,20.34
2023-05-13T20:41:16.050Z,20.35
2023-05-13T20:43:42.996Z,20.11
2023-05-13T20:46:16.864Z,20.27
2023-05-13T20:48:47.880Z,20.08
2023-05-13T20:51:14.740Z,20.15
2023-05-13T20:53:41.763Z,20.09
2023-05-13T20:56:10.089Z,19.89
2023-05-13T20:58:39.426Z,20.06
2023-05-13T21:01:08.846Z,19.99
2023-05-13T21:03:35.820Z,19.93
2023-05-13T21:06:05.001Z,19.89
2023-05-13T21:08:31.946Z,19.99
2023-05-13T21:10:58.945Z,19.75
2023-05-13T21:13:25.942Z,19.80
2023-05-13T21:15:52.955Z,19.84
2023-05-13T21:18:19.900Z,19.83
2023-05-13T21:20:50.190Z,19.76
2023-05-13T21:23:19.330Z,19.72
2023-05-13T21:25:49.852Z,19.59
2023-05-13T21:28:18.615Z,19.66
2023-05-13T21:30:46.108Z,19.63
2023-05-13T21:33:16.794Z,19.65
2023-05-13T21:35:43.728Z,19.76
2023-05-13T21:38:15.241Z,19.71
2023-05-13T21:40:44.648Z,19.77
2023-05-13T21:43:11.513Z,19.70
2023-05-13T21:45:38.510Z,19.54
2023-05-13T21:48:06.025Z,19.63
2023-05-13T21:50:34.126Z,19.52
2023-05-13T21:53:00.999Z,19.33
2023-05-13T21:55:27.927Z,19.42
2023-05-13T21:57:57.529Z,19.46
2023-05-13T22:00:26.980Z,19.54
2023-05-13T22:03:00.498Z,19.42
2023-05-13T22:05:30.238Z,19.57
2023-05-13T22:08:00.222Z,19.43
2023-05-13T22:10:27.307Z,19.39
2023-05-13T22:12:56.802Z,19.42
2023-05-13T22:15:23.707Z,19.29
2023-05-13T22:17:51.000Z,19.32
2023-05-13T22:20:23.375Z,19.29
2023-05-13T22:22:50.670Z,19.12
2023-05-13T22:25:20.001Z,19.01
2023-05-13T22:27:50.664Z,18.89
2023-05-13T22:30:17.854Z,18.83
2023-05-13T22:32:44.863Z,18.86
2023-05-13T22:35:14.786Z,19.03
2023-05-13T22:37:41.707Z,18.91
2023-05-13T22:40:18.273Z,19.01
2023-05-13T22:42:47.719Z,19.07
2023-05-13T22:45:14.678Z,19.12
2023-05-13T22:47:42.021Z,19.15
2023-05-13T22:50:09.637Z,18.85
2023-05-13T22:52:36.488Z,18.88
2023-05-13T22:55:06.401Z,18.53
2023-05-13T22:57:33.259Z,18.41
2023-05-13T23:00:00.250Z,18.44
2023-05-13T23:02:27.178Z,18.45
2023-05-13T23:04:54.211Z,18.55
2023-05-13T23:07:24.234Z,18.53
2023-05-13T23:09:53.317Z,18.59
2023-05-13T23:12:20.282Z,18.50
2023-05-13T23:14:47.124Z,18.50
2023-05-13T23:17:14.403Z,18.22
2023-05-13T23:19:41.281Z,18.26
2023-05-13T23:22:08.190Z,18.26
2023-05-13T23:24:38.109Z,18.38
2023-05-13T23:27:07.328Z,18.28
2023-05-13T23:29:36.415Z,18.05
2023-05-13T23:32:05.909Z,18.17
2023-05-13T23:34:33.972Z,18.17
2023-05-13T23:37:03.221Z,18.26
2023-05-13T23:39:32.330Z,17.96
2023-05-13T23:42:01.468Z,17.97
2023-05-13T23:44:28.328Z,18.01
2023-05-13T23:46:55.234Z,17.98
2023-05-13T23:49:22.248Z,17.77
2023-05-13T23:51:49.132Z,17.86
2023-05-13T23:54:16.630Z,17.84
2023-05-13T23:56:46.004Z,17.86
2023-05-13T23:59:13.006Z,17.81
